createdAt,value
2018-07-01T00:02:32.890Z,19.90
2018-07-01T00:07:27.822Z,19.90
2018-07-01T00:12:22.462Z,19.90
2018-07-01T00:22:12.474Z,19.80
2018-07-01T00:27:07.663Z,19.70
2018-07-01T00:32:03.226Z,19.70
2018-07-01T00:46:47.241Z,19.50
2018-07-01T00:51:44.043Z,19.50
2018-07-01T00:56:38.858Z,19.50
2018-07-01T01:01:34.095Z,19.30
2018-07-01T01:06:28.923Z,19.30
2018-07-01T01:11:23.482Z,19.20
2018-07-01T01:21:12.940Z,19.10
2018-07-01T01:26:07.632Z,19.00
2018-07-01T01:31:02.793Z,18.90
2018-07-01T01:40:58.740Z,18.80
2018-07-01T01:46:31.410Z,18.70
2018-07-01T01:51:34.463Z,18.60
2018-07-01T01:56:35.860Z,18.40
2018-07-01T02:01:42.569Z,18.40
2018-07-01T02:11:37.700Z,18.30
2018-07-01T02:16:37.744Z,18.20
2018-07-01T02:21:32.280Z,18.10
2018-07-01T02:26:27.796Z,18.10
2018-07-01T02:31:22.431Z,18.00
2018-07-01T02:36:17.265Z,17.80
2018-07-01T02:41:11.794Z,17.70
2018-07-01T02:46:06.258Z,17.60
2018-07-01T02:51:00.816Z,17.60
2018-07-01T02:55:55.264Z,17.50
2018-07-01T03:00:49.797Z,17.50
2018-07-01T03:05:44.507Z,17.50
2018-07-01T03:10:39.109Z,17.40
2018-07-01T03:15:33.890Z,17.30
2018-07-01T03:25:23.491Z,17.20
2018-07-01T03:30:18.058Z,17.20
2018-07-01T03:35:12.537Z,17.20
2018-07-01T03:40:07.594Z,17.20
2018-07-01T03:45:02.339Z,17.30
2018-07-01T03:49:57.077Z,17.30
2018-07-01T03:54:51.542Z,17.30
2018-07-01T03:59:46.205Z,17.40
2018-07-01T04:04:40.800Z,17.40
2018-07-01T04:09:35.516Z,17.40
2018-07-01T04:14:29.963Z,17.40
2018-07-01T04:19:29.476Z,17.40
2018-07-01T04:24:25.232Z,17.50
2018-07-01T04:29:20.224Z,17.50
2018-07-01T04:34:15.882Z,17.60
2018-07-01T04:39:10.531Z,17.60
2018-07-01T04:53:53.672Z,17.80
2018-07-01T04:58:48.282Z,18.10
2018-07-01T05:03:43.094Z,18.70
2018-07-01T05:08:37.571Z,19.10
2018-07-01T05:13:32.396Z,19.20
2018-07-01T05:18:26.885Z,21.20
2018-07-01T05:23:21.549Z,23.10
2018-07-01T05:28:16.031Z,24.60
2018-07-01T05:33:10.841Z,25.30
2018-07-01T05:38:05.596Z,26.50
2018-07-01T05:43:00.039Z,27.00
2018-07-01T05:47:55.801Z,28.00
2018-07-01T05:52:50.678Z,28.20
2018-07-01T05:57:45.705Z,27.90
2018-07-01T06:02:40.970Z,28.10
2018-07-01T06:07:35.719Z,28.10
2018-07-01T06:12:31.146Z,28.90
2018-07-01T06:17:26.232Z,30.20
2018-07-01T06:22:20.942Z,30.20
2018-07-01T06:27:16.073Z,30.30
2018-07-01T06:32:12.408Z,30.50
2018-07-01T06:37:07.386Z,31.60
2018-07-01T06:42:02.191Z,32.10
2018-07-01T06:51:52.215Z,34.10
2018-07-01T06:56:48.978Z,33.90
2018-07-01T07:01:43.869Z,33.90
2018-07-01T07:06:39.219Z,34.10
2018-07-01T07:11:34.621Z,34.70
2018-07-01T07:16:29.540Z,35.70
2018-07-01T07:21:24.318Z,35.70
2018-07-01T07:26:19.744Z,35.20
2018-07-01T07:31:14.640Z,35.60
2018-07-01T07:36:09.383Z,35.20
2018-07-01T07:41:04.118Z,37.30
2018-07-01T07:45:58.898Z,37.50
2018-07-01T07:50:53.960Z,37.70
2018-07-01T07:55:48.899Z,37.70
2018-07-01T08:00:43.712Z,37.80
2018-07-01T08:05:38.590Z,37.60
2018-07-01T08:10:33.321Z,37.00
2018-07-01T08:15:28.375Z,38.50
2018-07-01T08:20:23.512Z,39.50
2018-07-01T08:25:18.242Z,38.80
2018-07-01T08:30:13.117Z,38.10
2018-07-01T08:40:02.637Z,39.00
2018-07-01T08:44:58.632Z,40.30
2018-07-01T08:49:53.334Z,41.60
2018-07-01T08:54:48.809Z,43.30
2018-07-01T08:59:44.204Z,43.70
2018-07-01T09:04:38.999Z,42.60
2018-07-01T09:09:34.007Z,44.80
2018-07-01T09:14:34.635Z,43.30
2018-07-01T09:19:30.157Z,42.10
2018-07-01T09:24:30.218Z,41.00
2018-07-01T09:29:38.532Z,40.60
2018-07-01T09:34:33.576Z,40.50
2018-07-01T09:39:28.599Z,41.10
2018-07-01T09:44:23.390Z,40.40
2018-07-01T09:49:18.392Z,40.00
2018-07-01T09:54:13.183Z,40.10
2018-07-01T09:59:08.159Z,38.80
2018-07-01T10:04:02.861Z,34.50
2018-07-01T10:08:59.381Z,31.10
2018-07-01T10:13:54.422Z,29.20
2018-07-01T10:18:56.075Z,27.50
2018-07-01T10:23:50.971Z,26.30
2018-07-01T10:29:00.015Z,25.70
2018-07-01T10:33:55.128Z,25.00
2018-07-01T10:39:07.554Z,24.70
2018-07-01T10:44:20.858Z,24.40
2018-07-01T10:49:18.407Z,24.40
2018-07-01T10:54:20.383Z,24.40
2018-07-01T10:59:16.461Z,24.30
2018-07-01T11:09:24.176Z,24.40
2018-07-01T11:14:19.071Z,24.40
2018-07-01T11:19:13.651Z,24.40
2018-07-01T11:24:08.277Z,24.60
2018-07-01T11:33:57.351Z,24.90
2018-07-01T11:38:52.160Z,24.90
2018-07-01T11:43:47.514Z,25.10
2018-07-01T11:48:42.051Z,25.10
2018-07-01T11:53:36.796Z,25.10
2018-07-01T11:58:31.371Z,25.10
2018-07-01T12:03:25.934Z,25.30
2018-07-01T12:08:21.004Z,25.40
2018-07-01T12:13:15.630Z,25.40
2018-07-01T12:18:10.245Z,25.40
2018-07-01T12:23:05.254Z,25.50
2018-07-01T12:28:00.719Z,25.60
2018-07-01T12:37:49.517Z,25.50
2018-07-01T12:42:44.038Z,25.50
2018-07-01T12:47:38.899Z,25.60
2018-07-01T12:52:33.722Z,25.70
2018-07-01T12:57:28.233Z,25.80
2018-07-01T13:02:22.707Z,25.90
2018-07-01T13:12:12.204Z,26.20
2018-07-01T13:17:07.423Z,26.40
2018-07-01T13:26:57.893Z,26.30
2018-07-01T13:31:53.106Z,26.40
2018-07-01T13:41:42.547Z,26.50
2018-07-01T13:46:37.317Z,26.60
2018-07-01T13:51:32.412Z,26.50
2018-07-01T13:56:27.030Z,26.50
2018-07-01T14:01:21.655Z,26.50
2018-07-01T14:11:11.213Z,26.80
2018-07-01T14:16:06.707Z,26.70
2018-07-01T14:21:01.927Z,26.70
2018-07-01T14:25:56.699Z,26.80
2018-07-01T14:30:51.377Z,26.80
2018-07-01T14:35:46.427Z,27.00
2018-07-01T14:40:41.120Z,27.00
2018-07-01T14:45:35.998Z,27.10
2018-07-01T14:50:30.837Z,27.10
2018-07-01T14:55:25.331Z,27.20
2018-07-01T15:05:16.641Z,27.20
2018-07-01T15:10:11.395Z,27.20
2018-07-01T15:15:06.168Z,27.20
2018-07-01T15:20:00.706Z,27.30
2018-07-01T15:24:55.241Z,27.30
2018-07-01T15:34:44.089Z,27.30
2018-07-01T15:39:38.700Z,27.20
2018-07-01T15:44:33.225Z,27.20
2018-07-01T15:49:27.914Z,27.20
2018-07-01T15:54:22.503Z,27.10
2018-07-01T15:59:16.966Z,27.10
2018-07-01T16:04:11.674Z,27.20
2018-07-01T16:09:09.770Z,27.10
2018-07-01T16:18:59.394Z,27.10
2018-07-01T16:23:54.556Z,27.20
2018-07-01T16:28:55.014Z,27.10
2018-07-01T16:33:49.488Z,27.10
2018-07-01T16:38:44.302Z,27.10
2018-07-01T16:43:38.911Z,27.20
2018-07-01T16:48:33.701Z,27.10
2018-07-01T16:53:28.747Z,27.00
2018-07-01T16:58:23.251Z,26.90
2018-07-01T17:03:18.152Z,26.90
2018-07-01T17:08:12.646Z,26.70
2018-07-01T17:22:56.000Z,26.50
2018-07-01T17:27:50.810Z,26.50
2018-07-01T17:32:50.536Z,26.40
2018-07-01T17:37:45.174Z,26.30
2018-07-01T17:42:40.108Z,26.20
2018-07-01T17:47:35.275Z,26.10
2018-07-01T17:52:29.939Z,26.10
2018-07-01T17:57:25.029Z,26.00
2018-07-01T18:02:19.599Z,25.90
2018-07-01T18:12:09.030Z,25.70
2018-07-01T18:17:03.751Z,25.70
2018-07-01T18:22:12.600Z,25.60
2018-07-01T18:26:53.615Z,25.50
2018-07-01T18:31:48.468Z,25.30
2018-07-01T18:41:37.916Z,25.20
2018-07-01T18:46:32.776Z,25.10
2018-07-01T18:51:27.327Z,25.10
2018-07-01T18:56:22.267Z,25.00
2018-07-01T19:01:16.827Z,24.90
2018-07-01T19:20:55.174Z,24.30
2018-07-01T19:35:39.012Z,23.90
2018-07-01T19:40:33.614Z,23.90
2018-07-01T19:45:28.497Z,23.70
2018-07-01T19:55:20.726Z,23.50
2018-07-01T20:00:15.399Z,23.40
2018-07-01T20:05:10.267Z,23.10
2018-07-01T20:10:04.798Z,23.00
2018-07-01T20:14:59.484Z,22.90
2018-07-01T20:19:53.948Z,22.70
2018-07-01T20:29:42.910Z,22.60
2018-07-01T20:34:37.862Z,22.50
2018-07-01T20:39:32.630Z,22.40
2018-07-01T20:44:27.162Z,22.30
2018-07-01T20:49:21.913Z,22.10
2018-07-01T20:54:17.034Z,22.00
2018-07-01T20:59:11.588Z,21.90
2018-07-01T21:04:06.320Z,21.70
2018-07-01T21:09:00.985Z,21.60
2018-07-01T21:13:55.834Z,21.50
2018-07-01T21:18:50.850Z,21.40
2018-07-01T21:23:45.431Z,21.30
2018-07-01T21:28:40.719Z,21.20
2018-07-01T21:43:25.357Z,21.00
2018-07-01T21:48:20.174Z,20.90
2018-07-01T21:53:15.785Z,20.80
2018-07-01T21:58:13.084Z,20.70
2018-07-01T22:08:03.532Z,20.50
2018-07-01T22:17:53.061Z,20.30
2018-07-01T22:27:43.617Z,20.20
2018-07-01T22:32:38.387Z,20.20
2018-07-01T22:37:34.124Z,20.00
2018-07-01T22:42:28.911Z,19.90
2018-07-01T22:47:24.427Z,20.00
2018-07-01T22:52:20.189Z,19.80
2018-07-01T22:57:15.495Z,19.70
2018-07-01T23:03:17.578Z,19.70
2018-07-01T23:08:12.389Z,19.50
2018-07-01T23:13:07.231Z,19.40
2018-07-01T23:18:02.655Z,19.30
2018-07-01T23:22:57.986Z,19.20
2018-07-01T23:37:42.827Z,19.00
2018-07-01T23:42:37.530Z,18.90
2018-07-01T23:47:32.375Z,18.80
2018-07-01T23:52:27.077Z,18.70
2018-07-01T23:57:22.157Z,18.60
